sensor_id;sensor_type;location;lat;lon;timestamp;pressure;altitude;pressure_sealevel;temperature;humidity
16431;BME280;8325;49.284;7.238;2022-08-03T04:04:44;98779.44;;;16.53;71.15
16431;BME280;8325;49.284;7.238;2022-08-03T04:09:14;98772.16;;;16.48;71.29
16431;BME280;8325;49.284;7.238;2022-08-03T04:13:49;98777.41;;;16.55;70.91
16431;BME280;8325;49.284;7.238;2022-08-03T04:18:02;98776.63;;;16.48;71.72
16431;BME280;8325;49.284;7.238;2022-08-03T04:22:17;98776.59;;;16.54;71.22
16431;BME280;8325;49.284;7.238;2022-08-03T04:26:33;98787.34;;;16.53;71.26
16431;BME280;8325;49.284;7.238;2022-08-03T04:30:47;98776.22;;;16.51;71.47
16431;BME280;8325;49.284;7.238;2022-08-03T04:35:01;98789.97;;;16.53;71.08
16431;BME280;8325;49.284;7.238;2022-08-03T04:39:17;98784.13;;;16.51;71.31
16431;BME280;8325;49.284;7.238;2022-08-03T04:43:32;98793.22;;;16.62;71.62
16431;BME280;8325;49.284;7.238;2022-08-03T04:47:45;98792.22;;;16.63;71.28
16431;BME280;8325;49.284;7.238;2022-08-03T04:51:57;98794.84;;;16.63;71.78
16431;BME280;8325;49.284;7.238;2022-08-03T04:56:09;98801.94;;;16.62;71.52
16431;BME280;8325;49.284;7.238;2022-08-03T05:00:21;98804.38;;;16.64;71.43
16431;BME280;8325;49.284;7.238;2022-08-03T05:04:32;98805.38;;;16.69;71.01
16431;BME280;8325;49.284;7.238;2022-08-03T05:08:44;98806.97;;;16.70;71.40
16431;BME280;8325;49.284;7.238;2022-08-03T05:12:59;98812.50;;;16.75;71.07
16431;BME280;8325;49.284;7.238;2022-08-03T05:17:10;98810.25;;;16.72;71.04
16431;BME280;8325;49.284;7.238;2022-08-03T05:21:22;98810.25;;;16.72;71.38
16431;BME280;8325;49.284;7.238;2022-08-03T05:25:33;98812.66;;;16.80;70.70
16431;BME280;8325;49.284;7.238;2022-08-03T05:29:46;98816.72;;;16.83;71.14
16431;BME280;8325;49.284;7.238;2022-08-03T05:33:58;98817.53;;;16.84;71.06
16431;BME280;8325;49.284;7.238;2022-08-03T05:38:09;98815.09;;;16.89;71.52
16431;BME280;8325;49.284;7.238;2022-08-03T05:42:22;98815.81;;;17.09;70.92
16431;BME280;8325;49.284;7.238;2022-08-03T05:46:33;98812.09;;;17.23;70.50
16431;BME280;8325;49.284;7.238;2022-08-03T05:50:45;98812.47;;;17.34;70.58
16431;BME280;8325;49.284;7.238;2022-08-03T05:54:56;98805.34;;;19.51;64.28
16431;BME280;8325;49.284;7.238;2022-08-03T05:59:08;98787.47;;;24.85;48.36
16431;BME280;8325;49.284;7.238;2022-08-03T06:03:39;98781.00;;;28.91;38.82
16431;BME280;8325;49.284;7.238;2022-08-03T06:07:51;98781.94;;;31.92;33.69
16431;BME280;8325;49.284;7.238;2022-08-03T06:12:04;98781.13;;;35.04;28.52
16431;BME280;8325;49.284;7.238;2022-08-03T06:16:15;98788.66;;;35.40;27.92
16431;BME280;8325;49.284;7.238;2022-08-03T06:20:27;98783.78;;;35.55;27.51
16431;BME280;8325;49.284;7.238;2022-08-03T06:24:39;98779.22;;;33.81;29.44
16431;BME280;8325;49.284;7.238;2022-08-03T06:29:03;98780.03;;;33.73;30.10
16431;BME280;8325;49.284;7.238;2022-08-03T06:33:19;98790.53;;;33.05;30.76
16431;BME280;8325;49.284;7.238;2022-08-03T06:37:30;98785.72;;;32.44;31.87
16431;BME280;8325;49.284;7.238;2022-08-03T06:41:42;98790.34;;;33.10;31.48
16431;BME280;8325;49.284;7.238;2022-08-03T06:45:55;98788.47;;;33.10;30.84
16431;BME280;8325;49.284;7.238;2022-08-03T06:50:07;98785.47;;;32.32;32.04
16431;BME280;8325;49.284;7.238;2022-08-03T06:54:27;98793.16;;;30.02;35.42
16431;BME280;8325;49.284;7.238;2022-08-03T06:58:38;98801.31;;;30.11;36.08
16431;BME280;8325;49.284;7.238;2022-08-03T07:02:50;98799.34;;;28.41;39.44
16431;BME280;8325;49.284;7.238;2022-08-03T07:07:08;98808.22;;;27.73;40.88
16431;BME280;8325;49.284;7.238;2022-08-03T07:11:20;98807.97;;;27.30;41.57
16431;BME280;8325;49.284;7.238;2022-08-03T07:15:31;98810.88;;;27.34;42.22
16431;BME280;8325;49.284;7.238;2022-08-03T07:20:05;98806.44;;;27.58;41.52
16431;BME280;8325;49.284;7.238;2022-08-03T07:24:17;98805.72;;;27.87;41.09
16431;BME280;8325;49.284;7.238;2022-08-03T07:28:29;98805.75;;;27.42;42.14
16431;BME280;8325;49.284;7.238;2022-08-03T07:32:41;98804.31;;;27.55;41.84
16431;BME280;8325;49.284;7.238;2022-08-03T07:37:01;98801.31;;;27.12;42.14
16431;BME280;8325;49.284;7.238;2022-08-03T07:41:12;98801.16;;;27.48;42.02
16431;BME280;8325;49.284;7.238;2022-08-03T07:45:24;98803.63;;;28.13;40.59
16431;BME280;8325;49.284;7.238;2022-08-03T07:49:40;98798.19;;;27.89;40.95
16431;BME280;8325;49.284;7.238;2022-08-03T07:53:52;98805.44;;;27.49;41.32
16431;BME280;8325;49.284;7.238;2022-08-03T07:58:08;98806.44;;;27.58;41.32
16431;BME280;8325;49.284;7.238;2022-08-03T08:02:22;98805.78;;;28.40;39.96
16431;BME280;8325;49.284;7.238;2022-08-03T08:06:34;98806.50;;;28.21;39.45
16431;BME280;8325;49.284;7.238;2022-08-03T08:10:46;98805.69;;;28.50;39.09
16431;BME280;8325;49.284;7.238;2022-08-03T08:15:08;98790.53;;;28.59;38.89
16431;BME280;8325;49.284;7.238;2022-08-03T08:19:20;98792.41;;;28.83;38.92
16431;BME280;8325;49.284;7.238;2022-08-03T08:23:34;98789.88;;;28.73;38.21
16431;BME280;8325;49.284;7.238;2022-08-03T08:27:54;98787.63;;;28.80;38.30
16431;BME280;8325;49.284;7.238;2022-08-03T08:32:26;98783.31;;;29.22;38.36
16431;BME280;8325;49.284;7.238;2022-08-03T08:36:37;98784.72;;;29.38;38.01
16431;BME280;8325;49.284;7.238;2022-08-03T08:40:49;98783.41;;;29.35;37.97
16431;BME280;8325;49.284;7.238;2022-08-03T08:45:01;98780.50;;;29.32;37.76
16431;BME280;8325;49.284;7.238;2022-08-03T08:49:21;98784.41;;;29.21;36.40
16431;BME280;8325;49.284;7.238;2022-08-03T08:53:35;98780.41;;;29.18;36.59
16431;BME280;8325;49.284;7.238;2022-08-03T08:58:01;98781.94;;;29.24;34.33
16431;BME280;8325;49.284;7.238;2022-08-03T09:02:16;98781.72;;;29.21;34.02
16431;BME280;8325;49.284;7.238;2022-08-03T09:06:28;98778.53;;;29.19;33.70
16431;BME280;8325;49.284;7.238;2022-08-03T09:10:39;98775.78;;;29.24;34.23
16431;BME280;8325;49.284;7.238;2022-08-03T09:14:51;98772.72;;;29.30;34.47
16431;BME280;8325;49.284;7.238;2022-08-03T09:19:23;98774.75;;;29.39;33.71
16431;BME280;8325;49.284;7.238;2022-08-03T09:23:55;98770.88;;;29.45;34.56
16431;BME280;8325;49.284;7.238;2022-08-03T09:28:15;98773.63;;;29.58;33.46
16431;BME280;8325;49.284;7.238;2022-08-03T09:32:47;98769.78;;;29.65;33.31
16431;BME280;8325;49.284;7.238;2022-08-03T09:37:00;98766.16;;;29.74;33.11
16431;BME280;8325;49.284;7.238;2022-08-03T09:41:17;98756.00;;;29.85;33.37
16431;BME280;8325;49.284;7.238;2022-08-03T09:45:28;98757.38;;;29.82;33.21
16431;BME280;8325;49.284;7.238;2022-08-03T09:49:41;98753.22;;;29.90;33.50
16431;BME280;8325;49.284;7.238;2022-08-03T09:53:53;98750.22;;;29.92;33.16
16431;BME280;8325;49.284;7.238;2022-08-03T09:58:10;98748.25;;;29.97;31.98
16431;BME280;8325;49.284;7.238;2022-08-03T10:02:25;98749.06;;;30.12;31.68
16431;BME280;8325;49.284;7.238;2022-08-03T10:06:37;98745.91;;;30.23;31.60
16431;BME280;8325;49.284;7.238;2022-08-03T10:10:50;98744.53;;;30.40;31.93
16431;BME280;8325;49.284;7.238;2022-08-03T10:19:26;98731.84;;;30.68;31.28
16431;BME280;8325;49.284;7.238;2022-08-03T10:23:38;98722.53;;;30.74;30.81
16431;BME280;8325;49.284;7.238;2022-08-03T10:27:52;98720.34;;;30.76;29.90
16431;BME280;8325;49.284;7.238;2022-08-03T10:32:15;98710.16;;;30.73;29.63
16431;BME280;8325;49.284;7.238;2022-08-03T10:36:30;98714.25;;;30.84;29.92
16431;BME280;8325;49.284;7.238;2022-08-03T10:40:43;98713.38;;;30.61;29.62
16431;BME280;8325;49.284;7.238;2022-08-03T10:45:15;98706.34;;;30.74;31.21
16431;BME280;8325;49.284;7.238;2022-08-03T10:49:28;98707.44;;;31.01;30.44
16431;BME280;8325;49.284;7.238;2022-08-03T10:53:45;98696.47;;;31.19;30.08
16431;BME280;8325;49.284;7.238;2022-08-03T10:58:05;98693.63;;;31.38;29.30
16431;BME280;8325;49.284;7.238;2022-08-03T11:02:21;98697.94;;;31.26;28.37
16431;BME280;8325;49.284;7.238;2022-08-03T11:06:33;98692.22;;;31.41;29.91
16431;BME280;8325;49.284;7.238;2022-08-03T11:10:49;98689.41;;;31.55;29.14
16431;BME280;8325;49.284;7.238;2022-08-03T11:15:06;98683.75;;;31.65;28.79
16431;BME280;8325;49.284;7.238;2022-08-03T11:19:19;98682.50;;;31.71;28.18
16431;BME280;8325;49.284;7.238;2022-08-03T11:28:25;98672.72;;;31.53;27.60
16431;BME280;8325;49.284;7.238;2022-08-03T11:37:20;98668.16;;;31.53;27.72
16431;BME280;8325;49.284;7.238;2022-08-03T11:41:33;98661.28;;;31.78;28.96
16431;BME280;8325;49.284;7.238;2022-08-03T11:46:00;98664.81;;;31.87;28.07
16431;BME280;8325;49.284;7.238;2022-08-03T11:50:12;98672.38;;;32.08;27.45
16431;BME280;8325;49.284;7.238;2022-08-03T11:54:24;98668.72;;;32.04;26.32
16431;BME280;8325;49.284;7.238;2022-08-03T11:58:48;98657.94;;;32.13;27.02
16431;BME280;8325;49.284;7.238;2022-08-03T12:03:20;98657.00;;;32.26;27.26
16431;BME280;8325;49.284;7.238;2022-08-03T12:07:32;98663.56;;;32.33;27.27
16431;BME280;8325;49.284;7.238;2022-08-03T12:12:06;98661.00;;;32.28;26.96
16431;BME280;8325;49.284;7.238;2022-08-03T12:16:24;98653.28;;;32.44;27.50
16431;BME280;8325;49.284;7.238;2022-08-03T12:20:36;98657.56;;;32.54;26.91
16431;BME280;8325;49.284;7.238;2022-08-03T12:24:48;98652.19;;;32.71;26.03
16431;BME280;8325;49.284;7.238;2022-08-03T12:29:02;98644.72;;;32.77;26.93
16431;BME280;8325;49.284;7.238;2022-08-03T12:33:25;98637.09;;;32.70;25.37
16431;BME280;8325;49.284;7.238;2022-08-03T12:37:47;98643.47;;;32.92;25.88
16431;BME280;8325;49.284;7.238;2022-08-03T12:41:59;98633.09;;;32.59;24.71
16431;BME280;8325;49.284;7.238;2022-08-03T12:46:14;98622.59;;;32.49;25.33
16431;BME280;8325;49.284;7.238;2022-08-03T12:50:34;98625.31;;;32.75;25.62
16431;BME280;8325;49.284;7.238;2022-08-03T12:54:56;98630.38;;;32.85;25.12
16431;BME280;8325;49.284;7.238;2022-08-03T12:59:31;98623.56;;;33.05;24.89
16431;BME280;8325;49.284;7.238;2022-08-03T13:03:51;98629.13;;;33.09;24.95
16431;BME280;8325;49.284;7.238;2022-08-03T13:08:17;98620.06;;;33.13;24.74
16431;BME280;8325;49.284;7.238;2022-08-03T13:12:29;98619.06;;;33.27;25.34
16431;BME280;8325;49.284;7.238;2022-08-03T13:16:42;98612.34;;;33.41;25.34
16431;BME280;8325;49.284;7.238;2022-08-03T13:20:55;98612.22;;;33.29;24.72
16431;BME280;8325;49.284;7.238;2022-08-03T13:25:07;98602.53;;;33.19;24.26
16431;BME280;8325;49.284;7.238;2022-08-03T13:29:19;98594.28;;;33.07;24.80
16431;BME280;8325;49.284;7.238;2022-08-03T13:33:31;98601.84;;;33.31;25.44
16431;BME280;8325;49.284;7.238;2022-08-03T13:37:43;98582.06;;;33.48;25.41
16431;BME280;8325;49.284;7.238;2022-08-03T13:41:59;98589.06;;;33.49;24.90
16431;BME280;8325;49.284;7.238;2022-08-03T13:46:10;98583.13;;;33.64;24.50
16431;BME280;8325;49.284;7.238;2022-08-03T13:50:22;98578.47;;;33.74;24.71
16431;BME280;8325;49.284;7.238;2022-08-03T13:54:34;98579.44;;;33.78;24.78
16431;BME280;8325;49.284;7.238;2022-08-03T13:58:45;98573.91;;;33.95;24.68
16431;BME280;8325;49.284;7.238;2022-08-03T14:02:58;98578.31;;;34.08;24.87
16431;BME280;8325;49.284;7.238;2022-08-03T14:07:24;98569.72;;;34.06;24.15
16431;BME280;8325;49.284;7.238;2022-08-03T14:11:36;98565.59;;;34.00;24.02
16431;BME280;8325;49.284;7.238;2022-08-03T14:16:07;98561.78;;;33.72;24.50
16431;BME280;8325;49.284;7.238;2022-08-03T14:20:20;98554.59;;;33.76;24.96
16431;BME280;8325;49.284;7.238;2022-08-03T14:24:49;98556.25;;;33.59;25.23
16431;BME280;8325;49.284;7.238;2022-08-03T14:29:02;98550.59;;;33.73;25.65
16431;BME280;8325;49.284;7.238;2022-08-03T14:33:15;98551.63;;;33.60;24.71
16431;BME280;8325;49.284;7.238;2022-08-03T14:37:26;98548.44;;;33.58;25.42
16431;BME280;8325;49.284;7.238;2022-08-03T14:41:39;98540.28;;;33.66;25.69
16431;BME280;8325;49.284;7.238;2022-08-03T14:45:51;98540.56;;;33.74;25.44
16431;BME280;8325;49.284;7.238;2022-08-03T14:50:04;98549.81;;;33.73;25.66
16431;BME280;8325;49.284;7.238;2022-08-03T14:54:36;98540.03;;;33.80;24.64
16431;BME280;8325;49.284;7.238;2022-08-03T14:58:48;98529.72;;;33.74;24.30
16431;BME280;8325;49.284;7.238;2022-08-03T15:03:00;98542.38;;;33.61;24.40
16431;BME280;8325;49.284;7.238;2022-08-03T15:07:11;98526.56;;;33.72;24.77
16431;BME280;8325;49.284;7.238;2022-08-03T15:11:23;98517.59;;;33.80;24.57
16431;BME280;8325;49.284;7.238;2022-08-03T15:15:35;98509.41;;;33.88;25.16
16431;BME280;8325;49.284;7.238;2022-08-03T15:19:47;98512.72;;;33.94;25.59
16431;BME280;8325;49.284;7.238;2022-08-03T15:24:18;98498.69;;;33.92;24.80
16431;BME280;8325;49.284;7.238;2022-08-03T15:28:30;98494.06;;;33.92;24.74
16431;BME280;8325;49.284;7.238;2022-08-03T15:32:42;98483.25;;;33.92;25.31
16431;BME280;8325;49.284;7.238;2022-08-03T15:36:53;98492.03;;;33.89;24.90
16431;BME280;8325;49.284;7.238;2022-08-03T15:41:05;98490.38;;;33.97;24.29
16431;BME280;8325;49.284;7.238;2022-08-03T15:45:24;98483.41;;;33.96;24.46
16431;BME280;8325;49.284;7.238;2022-08-03T15:49:38;98476.78;;;33.85;24.56
16431;BME280;8325;49.284;7.238;2022-08-03T15:53:49;98477.50;;;33.94;24.85
16431;BME280;8325;49.284;7.238;2022-08-03T15:58:01;98479.28;;;33.90;25.24
16431;BME280;8325;49.284;7.238;2022-08-03T16:02:33;98473.22;;;33.93;25.32
16431;BME280;8325;49.284;7.238;2022-08-03T16:06:44;98473.41;;;33.88;24.90
16431;BME280;8325;49.284;7.238;2022-08-03T16:10:57;98468.16;;;33.83;24.29
16431;BME280;8325;49.284;7.238;2022-08-03T16:15:11;98474.97;;;33.89;24.96
16431;BME280;8325;49.284;7.238;2022-08-03T16:19:22;98465.09;;;33.93;24.43
16431;BME280;8325;49.284;7.238;2022-08-03T16:23:34;98468.47;;;33.90;24.73
16431;BME280;8325;49.284;7.238;2022-08-03T16:27:48;98467.50;;;33.86;24.71
16431;BME280;8325;49.284;7.238;2022-08-03T16:32:18;98462.44;;;33.84;24.38
16431;BME280;8325;49.284;7.238;2022-08-03T16:36:30;98469.19;;;33.78;25.25
16431;BME280;8325;49.284;7.238;2022-08-03T16:40:46;98457.88;;;33.76;25.54
16431;BME280;8325;49.284;7.238;2022-08-03T16:45:03;98451.00;;;33.79;24.88
16431;BME280;8325;49.284;7.238;2022-08-03T16:49:15;98451.66;;;33.76;25.54
16431;BME280;8325;49.284;7.238;2022-08-03T16:53:47;98455.59;;;33.57;24.60
16431;BME280;8325;49.284;7.238;2022-08-03T16:58:19;98452.78;;;33.45;25.73
16431;BME280;8325;49.284;7.238;2022-08-03T17:02:49;98445.88;;;33.27;25.87
16431;BME280;8325;49.284;7.238;2022-08-03T17:07:02;98455.19;;;33.08;26.38
16431;BME280;8325;49.284;7.238;2022-08-03T17:11:15;98452.03;;;32.97;26.43
16431;BME280;8325;49.284;7.238;2022-08-03T17:15:27;98453.34;;;32.83;26.86
16431;BME280;8325;49.284;7.238;2022-08-03T17:20:00;98450.00;;;32.77;26.49
16431;BME280;8325;49.284;7.238;2022-08-03T17:24:30;98451.94;;;32.76;26.78
16431;BME280;8325;49.284;7.238;2022-08-03T17:28:49;98444.78;;;32.72;26.60
16431;BME280;8325;49.284;7.238;2022-08-03T17:33:08;98450.50;;;32.70;26.50
16431;BME280;8325;49.284;7.238;2022-08-03T17:37:31;98452.75;;;32.68;26.81
16431;BME280;8325;49.284;7.238;2022-08-03T17:42:02;98446.41;;;32.64;27.34
16431;BME280;8325;49.284;7.238;2022-08-03T17:46:35;98449.25;;;32.59;27.12
16431;BME280;8325;49.284;7.238;2022-08-03T17:50:58;98448.31;;;32.55;26.47
16431;BME280;8325;49.284;7.238;2022-08-03T17:55:13;98443.56;;;32.52;26.46
16431;BME280;8325;49.284;7.238;2022-08-03T18:00:04;98450.69;;;32.48;26.49
16431;BME280;8325;49.284;7.238;2022-08-03T18:04:41;98451.16;;;32.32;27.58
16431;BME280;8325;49.284;7.238;2022-08-03T18:09:06;98452.13;;;32.19;27.28
16431;BME280;8325;49.284;7.238;2022-08-03T18:13:39;98455.16;;;32.09;27.38
16431;BME280;8325;49.284;7.238;2022-08-03T18:18:05;98455.31;;;32.04;27.52
16431;BME280;8325;49.284;7.238;2022-08-03T18:22:24;98452.44;;;31.92;28.80
16431;BME280;8325;49.284;7.238;2022-08-03T18:26:37;98453.38;;;31.78;30.44
16431;BME280;8325;49.284;7.238;2022-08-03T18:30:49;98456.53;;;31.63;31.23
16431;BME280;8325;49.284;7.238;2022-08-03T18:35:05;98456.16;;;31.38;31.81
16431;BME280;8325;49.284;7.238;2022-08-03T18:39:24;98461.63;;;30.93;33.52
16431;BME280;8325;49.284;7.238;2022-08-03T18:43:42;98467.44;;;30.56;34.40
16431;BME280;8325;49.284;7.238;2022-08-03T18:48:22;98458.78;;;30.22;35.08
16431;BME280;8325;49.284;7.238;2022-08-03T18:52:50;98465.84;;;29.96;35.63
16431;BME280;8325;49.284;7.238;2022-08-03T18:57:05;98467.16;;;29.71;36.25
16431;BME280;8325;49.284;7.238;2022-08-03T19:01:40;98470.94;;;29.42;36.80
16431;BME280;8325;49.284;7.238;2022-08-03T19:06:17;98471.44;;;29.17;37.09
16431;BME280;8325;49.284;7.238;2022-08-03T19:10:33;98475.44;;;28.86;38.35
16431;BME280;8325;49.284;7.238;2022-08-03T19:14:53;98475.69;;;28.57;39.30
16431;BME280;8325;49.284;7.238;2022-08-03T19:19:10;98475.56;;;28.30;39.91
16431;BME280;8325;49.284;7.238;2022-08-03T19:23:44;98480.41;;;28.09;40.74
16431;BME280;8325;49.284;7.238;2022-08-03T19:27:59;98486.25;;;27.92;41.36
16431;BME280;8325;49.284;7.238;2022-08-03T19:32:14;98495.03;;;27.79;42.29
16431;BME280;8325;49.284;7.238;2022-08-03T19:36:28;98494.19;;;27.59;43.81
16431;BME280;8325;49.284;7.238;2022-08-03T19:40:43;98496.06;;;27.35;44.29
16431;BME280;8325;49.284;7.238;2022-08-03T19:45:06;98496.78;;;27.16;43.93
16431;BME280;8325;49.284;7.238;2022-08-03T19:49:26;98495.59;;;26.98;44.63
16431;BME280;8325;49.284;7.238;2022-08-03T19:54:00;98501.13;;;26.78;44.60
16431;BME280;8325;49.284;7.238;2022-08-03T19:58:12;98502.09;;;26.58;45.55
16431;BME280;8325;49.284;7.238;2022-08-03T20:02:39;98505.88;;;26.47;45.54
16431;BME280;8325;49.284;7.238;2022-08-03T20:06:51;98505.44;;;26.34;46.32
16431;BME280;8325;49.284;7.238;2022-08-03T20:11:08;98506.06;;;26.21;46.51
16431;BME280;8325;49.284;7.238;2022-08-03T20:15:20;98511.72;;;26.14;46.37
16431;BME280;8325;49.284;7.238;2022-08-03T20:19:42;98510.19;;;26.03;46.05
16431;BME280;8325;49.284;7.238;2022-08-03T20:23:58;98504.59;;;25.94;46.48
16431;BME280;8325;49.284;7.238;2022-08-03T20:28:32;98512.13;;;25.82;47.15
16431;BME280;8325;49.284;7.238;2022-08-03T20:33:00;98506.81;;;25.72;47.83
16431;BME280;8325;49.284;7.238;2022-08-03T20:37:12;98498.31;;;25.60;47.89
16431;BME280;8325;49.284;7.238;2022-08-03T20:41:23;98504.78;;;25.43;47.79
16431;BME280;8325;49.284;7.238;2022-08-03T20:45:37;98504.78;;;25.33;48.04
16431;BME280;8325;49.284;7.238;2022-08-03T20:50:09;98505.06;;;25.26;47.90
16431;BME280;8325;49.284;7.238;2022-08-03T20:54:23;98501.88;;;25.14;47.16
16431;BME280;8325;49.284;7.238;2022-08-03T20:58:42;98505.91;;;25.07;47.58
16431;BME280;8325;49.284;7.238;2022-08-03T21:03:01;98500.00;;;24.99;47.91
16431;BME280;8325;49.284;7.238;2022-08-03T21:07:18;98497.34;;;24.84;48.02
16431;BME280;8325;49.284;7.238;2022-08-03T21:11:42;98500.03;;;24.69;48.49
16431;BME280;8325;49.284;7.238;2022-08-03T21:15:57;98499.47;;;24.56;49.43
16431;BME280;8325;49.284;7.238;2022-08-03T21:20:31;98500.56;;;24.45;49.58
16431;BME280;8325;49.284;7.238;2022-08-03T21:24:44;98505.34;;;24.43;50.06
16431;BME280;8325;49.284;7.238;2022-08-03T21:28:56;98502.91;;;24.26;50.33
